Time;durP1;ratioP1;P1;durP2;ratioP2;P2;SDS_P1;SDS_P2;PMS_P1;PMS_P2;Temp;Humidity;BMP_temperature;BMP_pressure;BME280_temperature;BME280_humidity;BME280_pressure;Samples;Min_cycle;Max_cycle;Signal;HPM_P1;HPM_P2
2021/11/05 00:00:40;;;;;;;8.32;4.03;;;7.30;99.90;;;;;;5055170;28;20041;-83
2021/11/05 00:03:09;;;;;;;7.88;4.50;;;7.30;99.90;;;;;;5050816;28;20549;-81
2021/11/05 00:05:36;;;;;;;5.72;3.83;;;7.30;99.90;;;;;;5063117;28;20049;-81
2021/11/05 00:08:09;;;;;;;6.55;3.92;;;7.40;99.90;;;;;;5042943;28;20129;-81
2021/11/05 00:10:37;;;;;;;7.10;4.20;;;7.30;99.90;;;;;;5055650;28;20091;-81
2021/11/05 00:13:04;;;;;;;5.53;3.85;;;7.30;99.90;;;;;;5054122;28;20465;-82
2021/11/05 00:15:32;;;;;;;6.90;4.20;;;7.20;99.90;;;;;;5055697;28;20128;-83
2021/11/05 00:18:00;;;;;;;6.50;4.38;;;7.30;99.90;;;;;;5055774;28;20133;-83
2021/11/05 00:20:29;;;;;;;6.45;4.15;;;7.30;99.90;;;;;;5053327;28;20052;-83
2021/11/05 00:22:57;;;;;;;7.30;3.97;;;7.20;99.90;;;;;;5056957;28;20090;-83
2021/11/05 00:25:24;;;;;;;6.38;4.20;;;7.30;99.90;;;;;;5055945;28;20075;-82
2021/11/05 00:27:52;;;;;;;7.40;4.47;;;7.20;99.90;;;;;;5054910;28;20052;-84
2021/11/05 00:30:19;;;;;;;6.38;4.07;;;7.30;99.90;;;;;;5054553;28;20084;-82
2021/11/05 00:32:47;;;;;;;6.45;4.15;;;7.20;99.90;;;;;;5053976;28;20080;-81
2021/11/05 00:35:15;;;;;;;7.88;4.38;;;7.10;99.90;;;;;;5054088;28;20535;-81
2021/11/05 00:37:45;;;;;;;6.80;4.20;;;7.20;99.90;;;;;;5061448;28;20131;-83
2021/11/05 00:40:15;;;;;;;6.55;4.13;;;7.20;99.90;;;;;;5057219;28;20107;-82
2021/11/05 00:42:42;;;;;;;7.03;4.32;;;7.10;99.90;;;;;;5069333;28;20449;-82
2021/11/05 00:45:10;;;;;;;6.35;4.20;;;7.20;99.90;;;;;;5049605;28;20137;-85
2021/11/05 00:47:38;;;;;;;7.18;4.28;;;7.10;99.90;;;;;;5047638;28;20116;-84
2021/11/05 00:50:06;;;;;;;7.47;4.43;;;7.10;99.90;;;;;;5054589;28;20080;-82
2021/11/05 00:52:33;;;;;;;5.82;3.92;;;7.10;99.90;;;;;;5054011;28;20044;-82
2021/11/05 00:55:02;;;;;;;6.53;4.10;;;7.10;99.90;;;;;;5054251;28;20076;-83
2021/11/05 00:57:29;;;;;;;7.13;4.45;;;7.10;99.90;;;;;;5053967;28;20081;-81
2021/11/05 00:59:56;;;;;;;6.70;4.28;;;7.10;99.90;;;;;;5054029;28;20459;-84
2021/11/05 01:02:23;;;;;;;6.30;3.90;;;7.20;99.90;;;;;;5054094;28;20577;-82
2021/11/05 01:04:50;;;;;;;6.47;3.92;;;7.20;99.90;;;;;;5053397;28;20132;-83
2021/11/05 01:07:18;;;;;;;5.95;4.07;;;7.10;99.90;;;;;;5042959;28;20041;-83
2021/11/05 01:09:45;;;;;;;6.55;4.20;;;7.20;99.90;;;;;;5033871;28;20460;-83
2021/11/05 01:12:14;;;;;;;6.60;4.10;;;7.20;99.90;;;;;;5051182;28;20544;-82
2021/11/05 01:14:42;;;;;;;6.78;4.00;;;7.10;99.90;;;;;;5052414;28;20037;-82
2021/11/05 01:17:09;;;;;;;5.57;3.95;;;7.20;99.90;;;;;;5052943;28;20128;-79
2021/11/05 01:19:36;;;;;;;5.85;3.35;;;7.10;99.90;;;;;;5052696;28;20131;-77
2021/11/05 01:22:03;;;;;;;5.97;3.65;;;7.10;99.90;;;;;;5053880;28;20108;-80
2021/11/05 01:24:31;;;;;;;5.80;3.70;;;7.10;99.90;;;;;;5054515;28;20546;-81
2021/11/05 01:26:58;;;;;;;7.32;3.83;;;7.20;99.90;;;;;;5042734;28;20156;-83
2021/11/05 01:29:26;;;;;;;5.88;3.40;;;7.10;99.90;;;;;;5055003;28;20052;-80
2021/11/05 01:31:54;;;;;;;6.38;3.30;;;7.10;99.90;;;;;;5053252;28;20567;-80
2021/11/05 01:34:21;;;;;;;4.93;2.95;;;7.10;99.90;;;;;;5053895;28;20095;-80
2021/11/05 01:36:48;;;;;;;4.90;3.08;;;7.00;99.90;;;;;;5055344;28;20132;-81
2021/11/05 01:39:16;;;;;;;4.63;2.95;;;7.00;99.90;;;;;;5054649;28;20509;-80
2021/11/05 01:41:44;;;;;;;6.32;2.83;;;7.00;99.90;;;;;;5055877;28;20384;-80
2021/11/05 01:44:12;;;;;;;6.35;3.50;;;7.10;99.90;;;;;;5055982;28;20080;-80
2021/11/05 01:46:42;;;;;;;5.75;3.40;;;7.20;99.90;;;;;;5055350;28;20479;-80
2021/11/05 01:49:10;;;;;;;5.00;2.83;;;7.20;99.90;;;;;;5055700;28;20043;-78
2021/11/05 01:51:38;;;;;;;5.00;3.17;;;6.40;99.90;;;;;;5055870;28;20513;-80
2021/11/05 01:54:08;;;;;;;5.32;3.40;;;7.20;99.90;;;;;;5054935;28;20123;-78
2021/11/05 01:56:36;;;;;;;5.57;2.85;;;7.00;99.90;;;;;;5054381;28;20041;-78
2021/11/05 01:59:04;;;;;;;5.07;2.75;;;7.10;99.90;;;;;;5054670;28;20657;-79
2021/11/05 02:01:34;;;;;;;4.10;2.53;;;7.00;99.90;;;;;;5053291;28;20143;-77
2021/11/05 02:04:03;;;;;;;4.57;2.63;;;7.10;99.90;;;;;;5051799;28;20051;-79
2021/11/05 02:06:31;;;;;;;4.82;2.70;;;7.10;99.90;;;;;;5067335;28;20131;-80
2021/11/05 02:09:00;;;;;;;4.75;2.60;;;7.00;99.90;;;;;;5052414;28;20128;-82
2021/11/05 02:11:27;;;;;;;4.20;2.40;;;7.00;99.90;;;;;;5051960;28;20124;-80
2021/11/05 02:13:56;;;;;;;4.88;2.67;;;7.10;99.90;;;;;;5052013;28;20131;-80
2021/11/05 02:16:24;;;;;;;4.05;2.33;;;6.90;99.90;;;;;;5050926;28;20132;-80
2021/11/05 02:18:51;;;;;;;3.90;2.30;;;7.00;99.90;;;;;;5051984;28;20128;-78
2021/11/05 02:21:29;;;;;;;4.75;2.60;;;7.00;99.90;;;;;;5052931;28;20136;-82
2021/11/05 02:23:57;;;;;;;4.22;2.28;;;7.10;99.90;;;;;;5052524;28;20118;-80
2021/11/05 02:26:24;;;;;;;3.92;2.25;;;7.00;99.90;;;;;;5052315;28;20136;-81
2021/11/05 02:28:51;;;;;;;4.00;2.40;;;7.10;99.90;;;;;;5051779;28;20128;-79
2021/11/05 02:31:18;;;;;;;4.75;2.33;;;7.20;99.90;;;;;;5051372;28;20141;-81
2021/11/05 02:33:45;;;;;;;4.03;2.13;;;7.00;99.90;;;;;;5051831;28;20128;-80
2021/11/05 02:36:12;;;;;;;4.00;2.15;;;7.00;99.90;;;;;;5052171;28;20169;-81
2021/11/05 02:38:41;;;;;;;4.20;2.10;;;7.20;99.90;;;;;;5053129;28;20128;-81
2021/11/05 02:41:08;;;;;;;3.80;2.10;;;7.20;99.90;;;;;;5051961;28;20465;-81
2021/11/05 02:43:36;;;;;;;4.68;1.92;;;7.20;99.90;;;;;;5052447;28;20150;-82
2021/11/05 02:46:03;;;;;;;4.15;2.00;;;7.10;99.90;;;;;;5052689;28;20056;-80
2021/11/05 02:48:31;;;;;;;5.00;2.13;;;7.10;99.90;;;;;;5052352;28;20048;-81
2021/11/05 02:50:59;;;;;;;3.67;2.00;;;7.10;99.90;;;;;;5051600;28;20045;-79
2021/11/05 02:53:26;;;;;;;3.58;2.20;;;7.10;99.90;;;;;;5051646;28;20447;-81
2021/11/05 02:55:55;;;;;;;4.00;1.83;;;7.10;99.90;;;;;;5051537;28;20212;-81
2021/11/05 02:58:23;;;;;;;3.50;1.70;;;7.10;99.90;;;;;;5053467;28;20140;-80
2021/11/05 03:00:51;;;;;;;4.15;2.15;;;7.10;99.90;;;;;;5054912;28;20122;-81
2021/11/05 03:03:18;;;;;;;3.75;1.90;;;7.20;99.90;;;;;;5055600;28;20451;-79
2021/11/05 03:05:45;;;;;;;3.63;1.77;;;7.20;99.90;;;;;;5055331;28;20060;-81
2021/11/05 03:08:12;;;;;;;3.65;1.83;;;7.20;99.90;;;;;;5055226;28;20128;-81
2021/11/05 03:10:39;;;;;;;3.55;1.70;;;7.10;99.90;;;;;;5055290;28;20083;-79
2021/11/05 03:13:08;;;;;;;3.42;1.73;;;7.20;99.90;;;;;;5054996;28;20144;-78
2021/11/05 03:15:35;;;;;;;3.30;1.67;;;7.10;99.90;;;;;;5055163;28;20140;-79
2021/11/05 03:18:03;;;;;;;3.35;2.00;;;7.20;99.90;;;;;;5055050;28;20742;-79
2021/11/05 03:20:30;;;;;;;3.20;1.85;;;7.10;99.90;;;;;;5054941;28;20041;-80
2021/11/05 03:22:57;;;;;;;3.70;2.00;;;7.10;99.90;;;;;;5054967;28;20558;-80
2021/11/05 03:25:25;;;;;;;3.10;1.85;;;7.10;99.90;;;;;;5054774;28;20052;-79
2021/11/05 03:27:52;;;;;;;4.05;1.90;;;7.20;99.90;;;;;;5055003;28;20152;-80
2021/11/05 03:30:20;;;;;;;3.85;1.85;;;7.10;99.90;;;;;;5054645;28;20156;-80
2021/11/05 03:32:47;;;;;;;3.50;1.80;;;7.10;99.90;;;;;;5054961;28;20132;-80
2021/11/05 03:35:15;;;;;;;4.57;1.90;;;7.20;99.90;;;;;;5054778;28;20461;-82
2021/11/05 03:37:44;;;;;;;3.85;1.80;;;7.10;99.90;;;;;;5054823;28;20160;-78
2021/11/05 03:40:14;;;;;;;4.00;2.00;;;7.10;99.90;;;;;;5054373;28;20083;-81
2021/11/05 03:42:41;;;;;;;3.08;1.67;;;7.00;99.90;;;;;;5054758;28;20137;-80
2021/11/05 03:45:10;;;;;;;3.60;1.95;;;7.20;99.90;;;;;;5054651;28;20136;-79
2021/11/05 03:47:38;;;;;;;3.47;1.90;;;7.10;99.90;;;;;;5054476;28;20136;-80
2021/11/05 03:50:06;;;;;;;3.83;1.98;;;7.10;99.90;;;;;;5054150;28;20139;-81
2021/11/05 03:52:33;;;;;;;3.65;2.00;;;7.00;99.90;;;;;;5058066;28;20120;-82
2021/11/05 03:55:02;;;;;;;6.90;2.20;;;7.10;99.90;;;;;;5066888;28;20060;-79
2021/11/05 03:57:29;;;;;;;3.55;1.95;;;7.10;99.90;;;;;;5066123;28;20084;-81
2021/11/05 03:59:56;;;;;;;3.50;1.98;;;7.10;99.90;;;;;;5058324;28;20135;-81
2021/11/05 04:02:23;;;;;;;4.22;2.30;;;7.10;99.90;;;;;;5052265;28;20223;-78
2021/11/05 04:04:55;;;;;;;4.72;2.15;;;7.10;99.90;;;;;;5051582;28;20447;-79
2021/11/05 04:07:22;;;;;;;4.78;2.40;;;7.00;99.90;;;;;;5051523;28;20052;-80
2021/11/05 04:09:49;;;;;;;5.47;2.13;;;7.00;99.90;;;;;;5049156;28;20561;-80
2021/11/05 04:12:17;;;;;;;4.70;2.38;;;7.00;99.90;;;;;;5050705;28;20132;-80
2021/11/05 04:14:44;;;;;;;5.03;2.38;;;7.00;99.90;;;;;;5036570;28;20589;-80
2021/11/05 04:17:13;;;;;;;3.70;2.20;;;7.00;99.90;;;;;;5050858;28;20124;-81
2021/11/05 04:19:40;;;;;;;3.90;1.98;;;7.00;99.90;;;;;;5050607;28;20060;-81
2021/11/05 04:22:08;;;;;;;3.85;1.90;;;7.00;99.90;;;;;;5051341;28;20148;-80
2021/11/05 04:24:36;;;;;;;3.58;1.98;;;7.00;99.90;;;;;;5051659;28;20128;-82
2021/11/05 04:27:04;;;;;;;3.15;1.80;;;7.10;99.90;;;;;;5062576;28;20099;-81
2021/11/05 04:29:32;;;;;;;3.80;1.90;;;7.00;99.90;;;;;;5063626;28;20069;-80
2021/11/05 04:31:59;;;;;;;3.47;2.00;;;7.10;99.90;;;;;;5064177;28;20056;-80
2021/11/05 04:34:26;;;;;;;3.45;1.80;;;7.00;99.90;;;;;;5055350;28;20132;-79
2021/11/05 04:36:53;;;;;;;3.63;1.70;;;7.10;99.90;;;;;;5050693;28;20091;-81
2021/11/05 04:39:24;;;;;;;3.70;2.00;;;7.00;99.90;;;;;;5050069;28;20072;-79
2021/11/05 04:41:52;;;;;;;3.05;1.65;;;7.00;99.90;;;;;;5050607;28;20084;-82
2021/11/05 04:44:20;;;;;;;3.70;2.03;;;7.10;99.90;;;;;;5050102;28;20140;-80
2021/11/05 04:46:47;;;;;;;3.83;1.88;;;7.10;99.90;;;;;;5050173;28;20131;-82
2021/11/05 04:49:15;;;;;;;3.38;1.85;;;7.10;99.90;;;;;;5050159;28;20123;-81
2021/11/05 04:51:42;;;;;;;4.05;2.20;;;7.10;99.90;;;;;;5050257;28;20459;-81
2021/11/05 04:54:09;;;;;;;2.95;1.58;;;7.00;99.90;;;;;;5050316;28;20128;-81
2021/11/05 04:56:38;;;;;;;3.53;1.80;;;7.00;99.90;;;;;;5050455;28;20179;-81
2021/11/05 04:59:05;;;;;;;3.50;1.83;;;7.00;99.90;;;;;;5050948;28;20394;-80
2021/11/05 05:01:33;;;;;;;3.10;1.67;;;7.00;99.90;;;;;;5052218;28;20136;-80
2021/11/05 05:04:00;;;;;;;3.05;1.63;;;7.00;99.90;;;;;;5054238;28;20149;-83
2021/11/05 05:06:27;;;;;;;3.30;1.58;;;7.10;99.90;;;;;;5053732;28;20131;-81
2021/11/05 05:08:54;;;;;;;3.45;1.80;;;7.10;99.90;;;;;;5052668;28;20119;-81
2021/11/05 05:11:21;;;;;;;3.35;1.60;;;7.10;99.90;;;;;;5053514;28;20088;-81
2021/11/05 05:13:50;;;;;;;3.60;1.83;;;7.10;99.90;;;;;;5053192;28;20195;-81
2021/11/05 05:16:17;;;;;;;3.28;1.65;;;7.10;99.90;;;;;;5053187;28;20140;-82
2021/11/05 05:18:46;;;;;;;3.28;1.70;;;7.00;99.90;;;;;;5053289;28;20132;-81
2021/11/05 05:21:13;;;;;;;3.28;1.60;;;7.10;99.90;;;;;;5051653;28;20064;-80
2021/11/05 05:23:40;;;;;;;3.17;1.63;;;7.10;99.90;;;;;;5052907;28;20139;-80
2021/11/05 05:26:08;;;;;;;3.10;1.42;;;7.10;99.90;;;;;;5052589;28;20132;-81
2021/11/05 05:28:35;;;;;;;5.35;1.85;;;7.00;99.90;;;;;;5052468;28;20131;-79
2021/11/05 05:31:08;;;;;;;3.50;1.70;;;7.00;99.90;;;;;;5052469;28;20128;-81
2021/11/05 05:33:36;;;;;;;3.70;1.75;;;7.10;99.90;;;;;;5052703;28;20055;-80
2021/11/05 05:36:04;;;;;;;2.88;1.50;;;7.00;99.90;;;;;;5052240;28;20049;-78
2021/11/05 05:38:31;;;;;;;3.47;1.70;;;7.10;99.90;;;;;;5053230;28;20139;-80
2021/11/05 05:40:59;;;;;;;2.90;1.40;;;7.10;99.90;;;;;;5052371;28;20240;-79
2021/11/05 05:43:26;;;;;;;2.92;1.60;;;7.10;99.90;;;;;;5052664;28;20052;-80
2021/11/05 05:45:53;;;;;;;3.80;1.60;;;7.10;99.90;;;;;;5052498;28;20147;-80
2021/11/05 05:48:23;;;;;;;3.58;1.70;;;7.20;99.90;;;;;;5052503;28;20135;-78
2021/11/05 05:50:50;;;;;;;3.63;1.95;;;7.10;99.90;;;;;;5052361;28;20084;-80
2021/11/05 05:53:17;;;;;;;3.42;1.90;;;7.10;99.90;;;;;;5052185;28;20590;-77
2021/11/05 05:55:44;;;;;;;3.33;1.88;;;7.10;99.90;;;;;;5052138;28;20116;-77
2021/11/05 05:58:11;;;;;;;4.03;2.05;;;7.10;99.90;;;;;;5051011;28;20488;-77
2021/11/05 06:00:39;;;;;;;5.20;2.22;;;7.10;99.90;;;;;;5052318;28;20041;-78
2021/11/05 06:03:06;;;;;;;4.00;1.80;;;7.10;99.90;;;;;;5052285;28;20563;-79
2021/11/05 06:05:34;;;;;;;3.60;1.98;;;7.10;99.90;;;;;;5051989;28;20137;-79
2021/11/05 06:08:01;;;;;;;3.90;2.00;;;7.10;99.90;;;;;;5051992;28;20509;-79
2021/11/05 06:10:28;;;;;;;3.92;1.95;;;7.10;99.90;;;;;;5051986;28;20136;-80
2021/11/05 06:12:55;;;;;;;3.28;1.98;;;7.00;99.90;;;;;;5051880;28;20140;-79
2021/11/05 06:15:22;;;;;;;3.47;2.00;;;7.00;99.90;;;;;;5051864;28;20494;-79
2021/11/05 06:17:50;;;;;;;4.28;2.30;;;7.00;99.90;;;;;;5051880;28;20546;-78
2021/11/05 06:20:18;;;;;;;4.70;2.88;;;7.00;99.90;;;;;;5051837;28;20529;-79
2021/11/05 06:22:47;;;;;;;4.55;2.25;;;7.10;99.90;;;;;;5052153;28;20045;-79
2021/11/05 06:25:14;;;;;;;3.80;2.00;;;7.00;99.90;;;;;;5051931;28;20080;-78
2021/11/05 06:27:41;;;;;;;3.92;2.10;;;7.00;99.90;;;;;;5051804;28;20151;-79
2021/11/05 06:30:11;;;;;;;3.60;2.20;;;7.00;99.90;;;;;;5051736;28;20146;-79
2021/11/05 06:32:39;;;;;;;3.85;2.20;;;7.00;99.90;;;;;;5051454;28;20045;-79
2021/11/05 06:35:07;;;;;;;4.90;1.85;;;7.00;99.90;;;;;;5051587;28;20084;-79
2021/11/05 06:37:37;;;;;;;3.47;1.98;;;6.90;99.90;;;;;;5051711;28;20095;-79
2021/11/05 06:40:08;;;;;;;4.95;2.00;;;6.90;99.90;;;;;;5051701;28;20057;-79
2021/11/05 06:42:35;;;;;;;3.78;1.77;;;7.00;99.90;;;;;;5051679;28;20049;-78
2021/11/05 06:45:02;;;;;;;3.67;1.92;;;7.00;99.90;;;;;;5051686;28;20136;-80
2021/11/05 06:47:29;;;;;;;3.40;1.60;;;7.00;99.90;;;;;;5051456;28;20135;-80
2021/11/05 06:49:56;;;;;;;4.97;1.98;;;7.00;99.90;;;;;;5051647;28;20580;-79
2021/11/05 06:52:24;;;;;;;3.22;1.48;;;7.00;99.90;;;;;;5051530;28;20135;-80
2021/11/05 06:54:51;;;;;;;4.53;1.73;;;7.00;99.90;;;;;;5050836;28;20120;-78
2021/11/05 06:57:19;;;;;;;2.92;1.52;;;7.00;99.90;;;;;;5051062;28;20140;-80
2021/11/05 06:59:46;;;;;;;2.75;1.25;;;7.00;99.90;;;;;;5051468;28;20139;-79
2021/11/05 07:02:13;;;;;;;2.80;1.30;;;7.00;99.90;;;;;;5051518;28;20135;-80
2021/11/05 07:04:40;;;;;;;2.58;1.20;;;7.00;99.90;;;;;;5051469;28;20140;-79
2021/11/05 07:07:08;;;;;;;2.20;1.02;;;7.00;99.90;;;;;;5051494;28;20577;-79
2021/11/05 07:09:35;;;;;;;2.50;1.00;;;7.00;99.90;;;;;;5053212;28;20144;-79
2021/11/05 07:12:03;;;;;;;2.58;1.10;;;7.10;99.90;;;;;;5052041;28;20041;-79
2021/11/05 07:14:32;;;;;;;2.55;1.20;;;7.10;99.90;;;;;;5067113;28;20132;-77
2021/11/05 07:16:59;;;;;;;2.70;1.30;;;7.10;99.90;;;;;;5051443;28;20131;-79
2021/11/05 07:19:26;;;;;;;2.97;1.30;;;7.10;99.90;;;;;;5051715;28;20127;-80
2021/11/05 07:21:59;;;;;;;2.67;1.27;;;7.10;99.90;;;;;;5051410;28;20078;-80
2021/11/05 07:24:27;;;;;;;2.60;1.05;;;7.10;99.90;;;;;;5051592;28;20121;-79
2021/11/05 07:26:55;;;;;;;3.13;1.20;;;7.10;99.90;;;;;;5051224;28;20045;-80
2021/11/05 07:29:25;;;;;;;3.00;1.30;;;7.10;99.90;;;;;;5051296;28;20482;-79
2021/11/05 07:31:55;;;;;;;2.35;1.10;;;7.20;99.90;;;;;;5051457;28;20055;-77
2021/11/05 07:34:22;;;;;;;2.63;1.13;;;7.10;99.90;;;;;;5051248;28;20081;-80
2021/11/05 07:36:49;;;;;;;2.65;1.17;;;7.10;99.90;;;;;;5051329;28;20165;-79
2021/11/05 07:39:16;;;;;;;2.38;1.23;;;7.20;99.90;;;;;;5051171;28;20096;-80
2021/11/05 07:41:44;;;;;;;2.85;1.30;;;7.10;99.90;;;;;;5051083;28;20121;-79
2021/11/05 07:44:11;;;;;;;3.05;1.30;;;7.20;99.90;;;;;;5051391;28;20470;-79
2021/11/05 07:46:40;;;;;;;2.90;1.08;;;7.30;99.90;;;;;;5054770;28;20135;-79
2021/11/05 07:49:09;;;;;;;3.10;1.30;;;7.20;99.90;;;;;;5054825;28;20602;-79
2021/11/05 07:51:36;;;;;;;4.05;1.58;;;7.20;99.90;;;;;;5054731;28;20443;-78
2021/11/05 07:54:05;;;;;;;4.00;1.65;;;7.30;99.90;;;;;;5054722;28;20553;-80
2021/11/05 07:56:33;;;;;;;2.90;1.40;;;7.30;99.90;;;;;;5054501;28;20453;-79
2021/11/05 07:59:00;;;;;;;2.60;1.20;;;7.40;99.90;;;;;;5054355;28;20131;-79
2021/11/05 08:01:27;;;;;;;3.25;1.27;;;7.40;99.90;;;;;;5054590;28;20148;-79
2021/11/05 08:03:54;;;;;;;2.70;1.30;;;7.50;99.90;;;;;;5054430;28;20135;-78
2021/11/05 08:06:23;;;;;;;3.20;1.50;;;7.50;99.90;;;;;;5054427;28;20080;-80
2021/11/05 08:08:50;;;;;;;3.13;1.40;;;7.50;99.90;;;;;;5054207;28;20128;-80
2021/11/05 08:11:17;;;;;;;3.20;1.40;;;7.60;99.90;;;;;;5054396;28;20140;-78
2021/11/05 08:13:45;;;;;;;2.97;1.50;;;7.60;99.90;;;;;;5054155;28;20127;-77
2021/11/05 08:16:12;;;;;;;3.67;1.42;;;7.50;99.90;;;;;;5054318;28;20137;-80
2021/11/05 08:18:39;;;;;;;2.83;1.40;;;7.60;99.90;;;;;;5054135;28;20566;-79
2021/11/05 08:21:06;;;;;;;3.40;1.48;;;7.60;99.90;;;;;;5054033;28;20160;-80
2021/11/05 08:23:35;;;;;;;3.35;1.60;;;7.50;99.90;;;;;;5053849;28;20115;-79
2021/11/05 08:26:03;;;;;;;3.50;1.85;;;7.50;99.90;;;;;;5053769;28;20056;-77
2021/11/05 08:28:30;;;;;;;3.40;1.45;;;7.60;99.90;;;;;;5053902;28;20087;-78
2021/11/05 08:30:57;;;;;;;7.00;2.17;;;7.60;99.90;;;;;;5053623;28;20091;-79
2021/11/05 08:33:24;;;;;;;4.22;2.17;;;7.50;99.90;;;;;;5053830;28;20132;-79
2021/11/05 08:35:52;;;;;;;3.22;1.70;;;7.60;99.90;;;;;;5053617;28;20501;-78
2021/11/05 08:38:22;;;;;;;5.57;2.33;;;7.60;99.90;;;;;;5053619;28;20103;-77
2021/11/05 08:40:54;;;;;;;3.92;1.90;;;7.60;99.90;;;;;;5053572;28;20171;-79
2021/11/05 08:43:26;;;;;;;5.53;2.10;;;7.50;99.90;;;;;;5053865;28;20462;-79
2021/11/05 08:45:53;;;;;;;5.13;2.33;;;7.60;99.90;;;;;;5053611;28;20080;-78
2021/11/05 08:48:21;;;;;;;9.48;2.47;;;7.60;99.90;;;;;;5053228;28;20140;-79
2021/11/05 08:50:49;;;;;;;5.47;2.20;;;7.60;99.90;;;;;;5053675;28;20128;-79
2021/11/05 08:53:17;;;;;;;4.78;2.85;;;7.60;99.90;;;;;;5053662;28;20471;-79
2021/11/05 08:55:45;;;;;;;5.03;2.47;;;7.70;99.90;;;;;;5053523;28;20141;-78
2021/11/05 08:58:13;;;;;;;5.00;2.70;;;7.80;99.90;;;;;;5057705;28;20091;-77
2021/11/05 09:00:41;;;;;;;5.40;2.40;;;7.80;99.90;;;;;;5053214;28;20133;-79
2021/11/05 09:03:08;;;;;;;5.82;2.67;;;7.80;99.90;;;;;;5052155;28;20045;-78
2021/11/05 09:05:37;;;;;;;4.72;2.58;;;7.80;99.90;;;;;;5052923;28;20561;-79
2021/11/05 09:08:06;;;;;;;4.65;2.85;;;7.90;99.90;;;;;;5053202;28;20118;-79
2021/11/05 09:10:34;;;;;;;5.75;2.80;;;7.90;99.90;;;;;;5053212;28;20124;-80
2021/11/05 09:13:02;;;;;;;4.80;2.83;;;7.80;99.90;;;;;;5053107;28;20139;-78
2021/11/05 09:15:31;;;;;;;6.38;2.97;;;7.90;99.90;;;;;;5052921;28;20053;-79
2021/11/05 09:18:02;;;;;;;4.47;2.70;;;7.90;99.90;;;;;;5053242;28;20128;-79
2021/11/05 09:20:30;;;;;;;5.70;2.85;;;7.90;99.90;;;;;;5053061;28;20095;-79
2021/11/05 09:22:58;;;;;;;6.32;2.90;;;7.90;99.90;;;;;;5052776;28;20057;-80
2021/11/05 09:25:25;;;;;;;4.72;2.40;;;8.00;99.90;;;;;;5052862;28;20059;-80
2021/11/05 09:27:52;;;;;;;5.28;3.20;;;8.10;99.90;;;;;;5052607;28;20469;-78
2021/11/05 09:30:23;;;;;;;4.50;2.50;;;8.10;99.90;;;;;;5052613;28;20144;-78
2021/11/05 09:32:53;;;;;;;5.47;2.88;;;8.20;99.90;;;;;;5052951;28;20429;-78
2021/11/05 09:35:20;;;;;;;5.38;3.40;;;8.20;99.90;;;;;;5052818;28;20049;-79
2021/11/05 09:37:51;;;;;;;6.13;2.83;;;8.20;99.90;;;;;;5067982;28;20045;-79
2021/11/05 09:40:21;;;;;;;4.25;2.53;;;8.30;99.90;;;;;;5051323;28;20045;-81
2021/11/05 09:42:52;;;;;;;5.18;2.90;;;8.30;99.90;;;;;;5052795;28;20132;-78
2021/11/05 09:45:19;;;;;;;5.30;2.95;;;8.30;99.90;;;;;;5052585;28;20048;-79
2021/11/05 09:47:48;;;;;;;4.95;2.60;;;8.30;99.90;;;;;;5052464;28;20081;-81
2021/11/05 09:50:20;;;;;;;4.05;2.58;;;8.30;99.90;;;;;;5052262;28;20136;-78
2021/11/05 09:52:48;;;;;;;4.70;2.42;;;8.40;99.90;;;;;;5052370;28;20135;-78
2021/11/05 09:55:17;;;;;;;5.40;2.78;;;8.40;99.90;;;;;;5052426;28;20088;-78
2021/11/05 09:57:45;;;;;;;4.68;2.67;;;8.50;99.90;;;;;;5052367;28;20098;-78
2021/11/05 10:00:16;;;;;;;5.80;2.75;;;8.50;99.90;;;;;;5052410;28;20083;-79
2021/11/05 10:02:45;;;;;;;5.78;3.05;;;8.50;99.90;;;;;;5052167;28;20550;-78
2021/11/05 10:05:13;;;;;;;5.10;2.58;;;8.50;99.90;;;;;;5052189;28;20093;-79
2021/11/05 10:07:50;;;;;;;4.32;2.42;;;8.60;99.90;;;;;;5051375;28;20135;-80
2021/11/05 10:10:25;;;;;;;3.80;2.30;;;8.60;99.90;;;;;;5052316;28;20068;-80
2021/11/05 10:12:56;;;;;;;4.05;2.47;;;8.80;99.90;;;;;;5052178;28;20132;-78
2021/11/05 10:15:28;;;;;;;3.80;2.20;;;8.80;99.90;;;;;;5052132;28;20076;-78
2021/11/05 10:18:08;;;;;;;4.47;2.40;;;8.80;99.90;;;;;;5051913;28;20049;-77
2021/11/05 10:20:35;;;;;;;4.00;2.30;;;8.90;99.90;;;;;;5066830;28;20120;-77
2021/11/05 10:23:06;;;;;;;4.38;2.53;;;9.10;99.90;;;;;;5052332;28;20124;-83
2021/11/05 10:25:37;;;;;;;5.63;2.45;;;9.10;99.90;;;;;;5053779;28;20467;-83
2021/11/05 10:28:18;;;;;;;3.60;2.28;;;9.10;99.90;;;;;;5036662;28;20048;-85
2021/11/05 10:30:59;;;;;;;4.25;2.50;;;9.10;99.90;;;;;;5053274;28;20135;-84
2021/11/05 10:33:32;;;;;;;3.78;2.20;;;9.10;99.90;;;;;;5040958;28;20045;-86
2021/11/05 10:36:04;;;;;;;4.70;2.40;;;9.20;99.90;;;;;;5053761;28;20072;-86
2021/11/05 10:38:36;;;;;;;4.15;2.17;;;9.10;99.90;;;;;;5052820;28;20052;-87
2021/11/05 10:41:08;;;;;;;3.78;2.13;;;9.20;99.90;;;;;;5052801;28;20145;-87
2021/11/05 10:43:41;;;;;;;4.13;2.08;;;9.20;99.90;;;;;;5054693;28;20574;-88
2021/11/05 10:46:24;;;;;;;4.45;2.30;;;9.20;99.90;;;;;;5058769;28;20045;-82
2021/11/05 10:48:52;;;;;;;4.40;2.17;;;9.30;99.90;;;;;;5037591;28;20398;-83
2021/11/05 10:51:24;;;;;;;4.18;2.47;;;9.30;99.90;;;;;;5054199;28;20144;-83
2021/11/05 10:53:53;;;;;;;3.65;2.28;;;9.30;99.90;;;;;;5055140;28;20055;-86
2021/11/05 10:56:24;;;;;;;3.50;2.10;;;9.30;99.90;;;;;;5055874;28;20144;-83
2021/11/05 10:58:58;;;;;;;4.13;2.10;;;9.40;99.90;;;;;;5055786;28;20072;-83
2021/11/05 11:01:29;;;;;;;4.18;2.15;;;9.40;99.90;;;;;;5054962;28;20048;-85
2021/11/05 11:03:59;;;;;;;3.50;2.00;;;9.50;99.90;;;;;;5054125;28;20041;-82
2021/11/05 11:06:29;;;;;;;4.20;2.30;;;9.50;99.90;;;;;;5054869;28;20044;-83
2021/11/05 11:08:59;;;;;;;4.07;2.10;;;9.60;99.90;;;;;;5054045;28;20414;-83
2021/11/05 11:11:30;;;;;;;3.53;2.10;;;9.60;99.90;;;;;;5052756;28;20052;-81
2021/11/05 11:14:01;;;;;;;4.18;2.28;;;9.60;99.90;;;;;;5055930;28;20484;-81
2021/11/05 11:16:31;;;;;;;4.15;1.90;;;9.70;99.90;;;;;;5058354;28;20048;-83
2021/11/05 11:19:01;;;;;;;3.45;1.90;;;9.70;99.90;;;;;;5070994;28;20053;-82
2021/11/05 11:21:32;;;;;;;3.45;1.77;;;9.80;99.90;;;;;;5057516;28;20049;-83
2021/11/05 11:24:03;;;;;;;3.17;1.65;;;9.90;99.90;;;;;;5055287;28;20099;-83
2021/11/05 11:26:30;;;;;;;3.65;2.00;;;10.00;99.90;;;;;;5055143;28;20045;-81
2021/11/05 11:29:00;;;;;;;3.00;1.77;;;10.00;99.90;;;;;;5070682;28;20053;-82
2021/11/05 11:31:28;;;;;;;4.28;2.10;;;10.00;99.90;;;;;;5055455;28;20172;-83
2021/11/05 11:34:02;;;;;;;4.00;2.50;;;10.00;99.90;;;;;;5054235;28;20056;-81
2021/11/05 11:36:30;;;;;;;4.93;2.92;;;10.00;99.90;;;;;;5038801;28;20049;-83
2021/11/05 11:39:05;;;;;;;5.70;2.88;;;10.00;99.90;;;;;;5057041;28;20056;-82
2021/11/05 11:41:34;;;;;;;4.40;2.38;;;10.00;99.90;;;;;;5055779;28;20049;-82
2021/11/05 11:44:03;;;;;;;4.05;2.17;;;10.00;99.90;;;;;;5055300;28;20061;-83
2021/11/05 11:46:31;;;;;;;3.83;2.15;;;9.90;99.90;;;;;;5055445;28;20053;-81
2021/11/05 11:49:00;;;;;;;4.03;2.33;;;9.90;99.90;;;;;;5055027;28;20136;-82
2021/11/05 11:51:35;;;;;;;4.20;1.98;;;9.90;99.90;;;;;;5055034;28;20124;-84
2021/11/05 11:54:29;;;;;;;;;;;9.90;99.90;;;;;;5055907;28;20095;-84
2021/11/05 11:56:56;;;;;;;3.40;1.85;;;9.90;99.90;;;;;;5054102;28;19964;-83
2021/11/05 11:59:31;;;;;;;3.90;1.60;;;9.80;99.90;;;;;;5060630;28;20079;-82
2021/11/05 12:01:59;;;;;;;;;;;9.90;99.90;;;;;;5057771;28;20128;-83
2021/11/05 12:04:35;;;;;;;3.85;1.70;;;9.90;99.90;;;;;;5055001;28;19921;-82
2021/11/05 12:07:09;;;;;;;4.05;2.10;;;9.80;99.90;;;;;;5056393;28;20060;-81
2021/11/05 12:09:41;;;;;;;3.35;1.83;;;9.70;99.90;;;;;;5059795;28;20060;-82
2021/11/05 12:12:34;;;;;;;3.63;2.05;;;9.80;99.90;;;;;;5066522;28;20120;-81
2021/11/05 12:15:17;;;;;;;3.72;1.95;;;9.80;99.90;;;;;;5057709;28;20062;-81
2021/11/05 12:18:08;;;;;;;3.38;1.83;;;9.80;99.90;;;;;;5063314;28;20483;-82
2021/11/05 12:20:42;;;;;;;3.35;1.90;;;9.80;99.90;;;;;;5059334;28;20072;-81
2021/11/05 12:23:27;;;;;;;4.03;2.10;;;9.80;99.90;;;;;;5066511;28;20057;-82
2021/11/05 12:26:00;;;;;;;3.92;1.90;;;9.90;99.90;;;;;;5060014;28;20049;-81
2021/11/05 12:28:41;;;;;;;5.18;3.15;;;10.00;99.90;;;;;;5063894;28;20143;-81
2021/11/05 12:31:29;;;;;;;8.90;4.55;;;10.00;99.90;;;;;;5063144;28;20059;-82
2021/11/05 12:34:05;;;;;;;6.53;3.10;;;10.10;99.90;;;;;;5057855;28;20052;-82
2021/11/05 12:36:48;;;;;;;5.20;2.45;;;10.20;99.90;;;;;;5053981;28;20140;-83
2021/11/05 12:39:16;;;;;;;3.60;1.97;;;10.30;99.90;;;;;;5052871;28;20603;-81
2021/11/05 12:42:03;;;;;;;3.55;1.80;;;10.30;99.90;;;;;;5054093;28;20144;-84
2021/11/05 12:44:53;;;;;;;3.17;1.80;;;10.40;99.90;;;;;;5056346;28;20470;-84
2021/11/05 12:47:46;;;;;;;4.32;2.05;;;10.50;99.90;;;;;;5054127;28;20132;-84
2021/11/05 12:50:18;;;;;;;4.22;1.83;;;10.70;99.90;;;;;;5056107;28;20048;-91
2021/11/05 12:52:52;;;;;;;3.63;2.10;;;10.90;99.90;;;;;;5057312;28;20132;-90
2021/11/05 12:55:20;;;;;;;3.70;2.20;;;11.00;99.90;;;;;;5057404;28;20055;-88
2021/11/05 12:57:54;;;;;;;3.55;2.10;;;11.10;99.90;;;;;;5058260;28;20045;-90
2021/11/05 13:00:23;;;;;;;4.27;2.40;;;11.20;99.90;;;;;;5057133;28;20095;-90
2021/11/05 13:02:52;;;;;;;3.70;2.10;;;11.30;99.90;;;;;;5058644;28;20056;-90
2021/11/05 13:05:19;;;;;;;3.60;2.03;;;11.40;99.70;;;;;;5059865;28;20049;-86
2021/11/05 13:07:55;;;;;;;3.55;2.22;;;11.50;99.20;;;;;;5048292;28;20075;-87